sensor_id;sensor_type;location;lat;lon;timestamp;pressure;altitude;pressure_sealevel;temperature;humidity
48964;BME280;34776;48.180;16.420;2023-07-22T00:00:24;99372.22;;;21.32;57.25
48964;BME280;34776;48.180;16.420;2023-07-22T00:02:49;99376.94;;;21.29;57.42
48964;BME280;34776;48.180;16.420;2023-07-22T00:05:14;99387.06;;;21.27;57.44
48964;BME280;34776;48.180;16.420;2023-07-22T00:07:40;99382.66;;;21.26;57.55
48964;BME280;34776;48.180;16.420;2023-07-22T00:10:06;99388.06;;;21.26;57.51
48964;BME280;34776;48.180;16.420;2023-07-22T00:12:34;99390.91;;;21.25;57.53
48964;BME280;34776;48.180;16.420;2023-07-22T00:14:59;99393.78;;;21.23;57.20
48964;BME280;34776;48.180;16.420;2023-07-22T00:17:24;99404.59;;;21.23;57.49
48964;BME280;34776;48.180;16.420;2023-07-22T00:19:50;99399.50;;;21.20;57.38
48964;BME280;34776;48.180;16.420;2023-07-22T00:22:15;99405.91;;;21.19;57.41
48964;BME280;34776;48.180;16.420;2023-07-22T00:24:41;99416.03;;;21.17;57.51
48964;BME280;34776;48.180;16.420;2023-07-22T00:27:06;99416.31;;;21.14;57.27
48964;BME280;34776;48.180;16.420;2023-07-22T00:29:36;99436.25;;;21.13;57.58
48964;BME280;34776;48.180;16.420;2023-07-22T00:32:02;99424.75;;;21.11;57.56
48964;BME280;34776;48.180;16.420;2023-07-22T00:34:27;99429.47;;;21.09;57.78
48964;BME280;34776;48.180;16.420;2023-07-22T00:36:52;99437.88;;;21.06;57.47
48964;BME280;34776;48.180;16.420;2023-07-22T00:39:18;99437.16;;;21.04;57.73
48964;BME280;34776;48.180;16.420;2023-07-22T00:41:44;99440.91;;;21.03;57.61
48964;BME280;34776;48.180;16.420;2023-07-22T00:44:12;99432.25;;;20.99;57.83
48964;BME280;34776;48.180;16.420;2023-07-22T00:46:38;99426.16;;;20.97;58.04
48964;BME280;34776;48.180;16.420;2023-07-22T00:49:07;99437.28;;;20.94;57.93
48964;BME280;34776;48.180;16.420;2023-07-22T00:51:33;99427.31;;;20.95;57.63
48964;BME280;34776;48.180;16.420;2023-07-22T00:53:58;99431.03;;;20.94;57.58
48964;BME280;34776;48.180;16.420;2023-07-22T00:56:24;99436.56;;;20.92;57.52
48964;BME280;34776;48.180;16.420;2023-07-22T00:58:50;99438.44;;;20.92;57.57
48964;BME280;34776;48.180;16.420;2023-07-22T01:01:15;99461.03;;;20.91;57.43
48964;BME280;34776;48.180;16.420;2023-07-22T01:03:42;99477.09;;;20.92;57.26
48964;BME280;34776;48.180;16.420;2023-07-22T01:06:07;99475.56;;;20.90;57.22
48964;BME280;34776;48.180;16.420;2023-07-22T01:08:33;99483.81;;;20.88;57.53
48964;BME280;34776;48.180;16.420;2023-07-22T01:10:58;99494.75;;;20.86;57.85
48964;BME280;34776;48.180;16.420;2023-07-22T01:13:24;99496.59;;;20.86;57.66
48964;BME280;34776;48.180;16.420;2023-07-22T01:15:49;99494.06;;;20.84;57.63
48964;BME280;34776;48.180;16.420;2023-07-22T01:18:16;99501.44;;;20.82;57.82
48964;BME280;34776;48.180;16.420;2023-07-22T01:20:42;99512.41;;;20.81;58.11
48964;BME280;34776;48.180;16.420;2023-07-22T01:23:09;99518.97;;;20.78;58.11
48964;BME280;34776;48.180;16.420;2023-07-22T01:25:34;99525.53;;;20.76;57.99
48964;BME280;34776;48.180;16.420;2023-07-22T01:28:00;99527.53;;;20.74;58.12
48964;BME280;34776;48.180;16.420;2023-07-22T01:30:25;99541.16;;;20.72;58.04
48964;BME280;34776;48.180;16.420;2023-07-22T01:32:52;99553.97;;;20.70;58.29
48964;BME280;34776;48.180;16.420;2023-07-22T01:35:18;99556.84;;;20.68;58.50
48964;BME280;34776;48.180;16.420;2023-07-22T01:37:44;99572.34;;;20.66;58.48
48964;BME280;34776;48.180;16.420;2023-07-22T01:40:10;99567.06;;;20.65;58.59
48964;BME280;34776;48.180;16.420;2023-07-22T01:42:41;99578.84;;;20.64;58.43
48964;BME280;34776;48.180;16.420;2023-07-22T01:45:07;99588.69;;;20.65;58.65
48964;BME280;34776;48.180;16.420;2023-07-22T01:47:36;99590.34;;;20.66;58.71
48964;BME280;34776;48.180;16.420;2023-07-22T01:50:03;99598.31;;;20.67;58.66
48964;BME280;34776;48.180;16.420;2023-07-22T01:52:28;99590.06;;;20.69;58.71
48964;BME280;34776;48.180;16.420;2023-07-22T01:54:54;99590.91;;;20.70;58.77
48964;BME280;34776;48.180;16.420;2023-07-22T01:57:19;99598.03;;;20.71;58.72
48964;BME280;34776;48.180;16.420;2023-07-22T01:59:45;99590.91;;;20.70;58.96
48964;BME280;34776;48.180;16.420;2023-07-22T02:02:10;99597.03;;;20.72;58.59
48964;BME280;34776;48.180;16.420;2023-07-22T02:04:35;99595.16;;;20.72;58.67
48964;BME280;34776;48.180;16.420;2023-07-22T02:07:01;99598.88;;;20.71;58.71
48964;BME280;34776;48.180;16.420;2023-07-22T02:09:26;99608.84;;;20.71;58.76
48964;BME280;34776;48.180;16.420;2023-07-22T02:11:52;99605.97;;;20.72;58.79
48964;BME280;34776;48.180;16.420;2023-07-22T02:14:18;99600.56;;;20.72;58.78
48964;BME280;34776;48.180;16.420;2023-07-22T02:16:43;99604.28;;;20.71;59.04
48964;BME280;34776;48.180;16.420;2023-07-22T02:19:09;99603.25;;;20.72;58.89
48964;BME280;34776;48.180;16.420;2023-07-22T02:21:34;99612.25;;;20.73;58.87
48964;BME280;34776;48.180;16.420;2023-07-22T02:24:00;99610.53;;;20.72;59.06
48964;BME280;34776;48.180;16.420;2023-07-22T02:26:25;99615.34;;;20.68;59.06
48964;BME280;34776;48.180;16.420;2023-07-22T02:28:50;99619.34;;;20.64;59.01
48964;BME280;34776;48.180;16.420;2023-07-22T02:31:16;99616.81;;;20.62;59.17
48964;BME280;34776;48.180;16.420;2023-07-22T02:33:41;99615.09;;;20.61;59.47
48964;BME280;34776;48.180;16.420;2023-07-22T02:36:07;99618.50;;;20.63;59.48
48964;BME280;34776;48.180;16.420;2023-07-22T02:38:32;99612.97;;;20.65;59.41
48964;BME280;34776;48.180;16.420;2023-07-22T02:41:02;99612.56;;;20.60;59.40
48964;BME280;34776;48.180;16.420;2023-07-22T02:43:28;99612.13;;;20.55;59.64
48964;BME280;34776;48.180;16.420;2023-07-22T02:45:54;99615.84;;;20.54;59.71
48964;BME280;34776;48.180;16.420;2023-07-22T02:48:20;99627.63;;;20.53;59.66
48964;BME280;34776;48.180;16.420;2023-07-22T02:50:45;99629.16;;;20.55;59.54
48964;BME280;34776;48.180;16.420;2023-07-22T02:53:11;99629.34;;;20.54;59.70
48964;BME280;34776;48.180;16.420;2023-07-22T02:55:36;99625.94;;;20.52;59.95
48964;BME280;34776;48.180;16.420;2023-07-22T02:58:02;99624.34;;;20.49;59.91
48964;BME280;34776;48.180;16.420;2023-07-22T03:00:27;99626.22;;;20.48;60.07
48964;BME280;34776;48.180;16.420;2023-07-22T03:02:56;99618.41;;;20.45;60.17
48964;BME280;34776;48.180;16.420;2023-07-22T03:05:29;99639.31;;;20.43;60.09
48964;BME280;34776;48.180;16.420;2023-07-22T03:07:56;99642.97;;;20.42;60.38
48964;BME280;34776;48.180;16.420;2023-07-22T03:10:21;99653.78;;;20.42;60.35
48964;BME280;34776;48.180;16.420;2023-07-22T03:12:47;99650.94;;;20.44;60.41
48964;BME280;34776;48.180;16.420;2023-07-22T03:15:12;99652.81;;;20.43;60.18
48964;BME280;34776;48.180;16.420;2023-07-22T03:17:39;99642.97;;;20.42;60.44
48964;BME280;34776;48.180;16.420;2023-07-22T03:20:07;99648.25;;;20.44;60.34
48964;BME280;34776;48.180;16.420;2023-07-22T03:22:39;99644.72;;;20.43;60.32
48964;BME280;34776;48.180;16.420;2023-07-22T03:25:05;99639.31;;;20.43;60.18
48964;BME280;34776;48.180;16.420;2023-07-22T03:27:33;99646.38;;;20.44;60.09
48964;BME280;34776;48.180;16.420;2023-07-22T03:29:58;99639.00;;;20.46;60.03
48964;BME280;34776;48.180;16.420;2023-07-22T03:32:25;99638.03;;;20.47;60.02
48964;BME280;34776;48.180;16.420;2023-07-22T03:34:50;99641.56;;;20.48;60.18
48964;BME280;34776;48.180;16.420;2023-07-22T03:37:16;99651.50;;;20.47;60.18
48964;BME280;34776;48.180;16.420;2023-07-22T03:39:41;99644.13;;;20.50;60.13
48964;BME280;34776;48.180;16.420;2023-07-22T03:42:06;99637.84;;;20.49;60.01
48964;BME280;34776;48.180;16.420;2023-07-22T03:44:32;99643.81;;;20.53;59.78
48964;BME280;34776;48.180;16.420;2023-07-22T03:46:57;99642.13;;;20.52;59.89
48964;BME280;34776;48.180;16.420;2023-07-22T03:49:22;99651.78;;;20.54;59.53
48964;BME280;34776;48.180;16.420;2023-07-22T03:51:48;99643.25;;;20.59;59.60
48964;BME280;34776;48.180;16.420;2023-07-22T03:54:13;99646.66;;;20.61;59.62
48964;BME280;34776;48.180;16.420;2023-07-22T03:56:41;99654.06;;;20.59;58.97
48964;BME280;34776;48.180;16.420;2023-07-22T03:59:06;99656.03;;;20.57;58.60
48964;BME280;34776;48.180;16.420;2023-07-22T04:01:32;99655.19;;;20.56;58.54
48964;BME280;34776;48.180;16.420;2023-07-22T04:03:58;99664.13;;;20.57;58.54
48964;BME280;34776;48.180;16.420;2023-07-22T04:06:23;99670.25;;;20.59;58.26
48964;BME280;34776;48.180;16.420;2023-07-22T04:08:49;99661.84;;;20.62;58.24
48964;BME280;34776;48.180;16.420;2023-07-22T04:11:14;99665.25;;;20.64;58.12
48964;BME280;34776;48.180;16.420;2023-07-22T04:13:39;99669.34;;;20.68;58.10
48964;BME280;34776;48.180;16.420;2023-07-22T04:16:05;99665.09;;;20.75;58.04
48964;BME280;34776;48.180;16.420;2023-07-22T04:18:30;99666.63;;;20.78;57.68
48964;BME280;34776;48.180;16.420;2023-07-22T04:24:02;99662.84;;;20.61;57.74
48964;BME280;34776;48.180;16.420;2023-07-22T04:26:27;99681.16;;;20.57;57.54
48964;BME280;34776;48.180;16.420;2023-07-22T04:28:53;99675.06;;;20.55;57.76
48964;BME280;34776;48.180;16.420;2023-07-22T04:31:18;99667.25;;;20.52;57.40
48964;BME280;34776;48.180;16.420;2023-07-22T04:33:44;99668.94;;;20.53;57.80
48964;BME280;34776;48.180;16.420;2023-07-22T04:36:09;99682.03;;;20.58;57.60
48964;BME280;34776;48.180;16.420;2023-07-22T04:38:35;99683.31;;;20.63;57.18
48964;BME280;34776;48.180;16.420;2023-07-22T04:41:02;99690.97;;;20.68;57.08
48964;BME280;34776;48.180;16.420;2023-07-22T04:43:28;99696.09;;;20.71;57.16
48964;BME280;34776;48.180;16.420;2023-07-22T04:45:54;99698.34;;;20.66;56.90
48964;BME280;34776;48.180;16.420;2023-07-22T04:48:21;99696.09;;;20.61;56.84
48964;BME280;34776;48.180;16.420;2023-07-22T04:50:50;99702.34;;;20.62;56.56
48964;BME280;34776;48.180;16.420;2023-07-22T04:53:17;99697.66;;;20.64;56.71
48964;BME280;34776;48.180;16.420;2023-07-22T04:55:45;99699.63;;;20.72;57.08
48964;BME280;34776;48.180;16.420;2023-07-22T04:58:11;99696.94;;;20.72;56.49
48964;BME280;34776;48.180;16.420;2023-07-22T05:00:37;99691.66;;;20.70;56.62
48964;BME280;34776;48.180;16.420;2023-07-22T05:03:03;99702.59;;;20.78;56.39
48964;BME280;34776;48.180;16.420;2023-07-22T05:05:29;99696.91;;;20.81;56.39
48964;BME280;34776;48.180;16.420;2023-07-22T05:07:54;99696.59;;;20.84;56.31
48964;BME280;34776;48.180;16.420;2023-07-22T05:10:20;99698.00;;;20.88;56.09
48964;BME280;34776;48.180;16.420;2023-07-22T05:12:45;99693.31;;;20.91;56.28
48964;BME280;34776;48.180;16.420;2023-07-22T05:15:11;99681.22;;;20.95;55.75
48964;BME280;34776;48.180;16.420;2023-07-22T05:17:37;99688.31;;;20.96;55.96
48964;BME280;34776;48.180;16.420;2023-07-22T05:20:03;99694.00;;;20.93;56.00
48964;BME280;34776;48.180;16.420;2023-07-22T05:22:31;99702.69;;;20.96;55.94
48964;BME280;34776;48.180;16.420;2023-07-22T05:24:57;99693.97;;;21.02;55.86
48964;BME280;34776;48.180;16.420;2023-07-22T05:27:22;99697.91;;;21.08;55.75
48964;BME280;34776;48.180;16.420;2023-07-22T05:29:48;99698.72;;;21.18;55.65
48964;BME280;34776;48.180;16.420;2023-07-22T05:32:13;99684.34;;;21.27;55.40
48964;BME280;34776;48.180;16.420;2023-07-22T05:34:39;99694.25;;;21.27;55.17
48964;BME280;34776;48.180;16.420;2023-07-22T05:37:05;99689.19;;;21.24;55.27
48964;BME280;34776;48.180;16.420;2023-07-22T05:39:30;99691.97;;;21.32;55.41
48964;BME280;34776;48.180;16.420;2023-07-22T05:41:55;99694.91;;;21.39;55.27
48964;BME280;34776;48.180;16.420;2023-07-22T05:44:21;99705.59;;;21.40;55.12
48964;BME280;34776;48.180;16.420;2023-07-22T05:46:47;99706.16;;;21.44;55.13
48964;BME280;34776;48.180;16.420;2023-07-22T05:49:12;99699.16;;;21.51;55.06
48964;BME280;34776;48.180;16.420;2023-07-22T05:51:37;99709.03;;;21.60;55.26
48964;BME280;34776;48.180;16.420;2023-07-22T05:54:03;99708.53;;;21.75;54.86
48964;BME280;34776;48.180;16.420;2023-07-22T05:56:28;99717.34;;;21.77;54.60
48964;BME280;34776;48.180;16.420;2023-07-22T05:58:54;99708.94;;;21.80;54.50
48964;BME280;34776;48.180;16.420;2023-07-22T06:01:19;99714.03;;;21.83;54.14
48964;BME280;34776;48.180;16.420;2023-07-22T06:03:45;99715.56;;;21.85;54.16
48964;BME280;34776;48.180;16.420;2023-07-22T06:06:10;99718.50;;;21.92;53.94
48964;BME280;34776;48.180;16.420;2023-07-22T06:08:35;99714.19;;;21.99;53.30
48964;BME280;34776;48.180;16.420;2023-07-22T06:11:01;99722.16;;;22.01;53.55
48964;BME280;34776;48.180;16.420;2023-07-22T06:13:26;99726.47;;;22.12;53.50
48964;BME280;34776;48.180;16.420;2023-07-22T06:15:52;99727.09;;;22.23;53.18
48964;BME280;34776;48.180;16.420;2023-07-22T06:18:17;99720.66;;;22.42;52.94
48964;BME280;34776;48.180;16.420;2023-07-22T06:20:44;99714.81;;;22.55;52.52
48964;BME280;34776;48.180;16.420;2023-07-22T06:23:09;99716.59;;;22.64;52.23
48964;BME280;34776;48.180;16.420;2023-07-22T06:25:34;99713.81;;;22.74;52.02
48964;BME280;34776;48.180;16.420;2023-07-22T06:28:00;99715.88;;;22.88;51.17
48964;BME280;34776;48.180;16.420;2023-07-22T06:30:26;99724.84;;;23.07;50.18
48964;BME280;34776;48.180;16.420;2023-07-22T06:32:52;99739.44;;;24.24;48.11
48964;BME280;34776;48.180;16.420;2023-07-22T06:35:18;99733.63;;;25.48;46.09
48964;BME280;34776;48.180;16.420;2023-07-22T06:37:43;99740.66;;;28.22;43.55
48964;BME280;34776;48.180;16.420;2023-07-22T06:40:09;99737.41;;;31.27;38.03
48964;BME280;34776;48.180;16.420;2023-07-22T06:42:35;99739.91;;;32.83;35.77
48964;BME280;34776;48.180;16.420;2023-07-22T06:45:01;99750.47;;;33.29;34.62
48964;BME280;34776;48.180;16.420;2023-07-22T06:47:26;99741.44;;;33.41;31.79
48964;BME280;34776;48.180;16.420;2023-07-22T06:49:51;99746.88;;;34.14;30.35
48964;BME280;34776;48.180;16.420;2023-07-22T06:52:17;99757.84;;;34.99;29.56
48964;BME280;34776;48.180;16.420;2023-07-22T06:54:43;99764.75;;;35.13;29.51
48964;BME280;34776;48.180;16.420;2023-07-22T06:57:08;99757.84;;;36.03;27.73
48964;BME280;34776;48.180;16.420;2023-07-22T06:59:34;99753.94;;;37.12;25.67
48964;BME280;34776;48.180;16.420;2023-07-22T07:01:59;99759.28;;;37.80;25.83
48964;BME280;34776;48.180;16.420;2023-07-22T07:04:25;99762.75;;;38.20;24.68
48964;BME280;34776;48.180;16.420;2023-07-22T07:06:51;99759.19;;;37.97;24.71
48964;BME280;34776;48.180;16.420;2023-07-22T07:09:16;99755.41;;;38.63;23.60
48964;BME280;34776;48.180;16.420;2023-07-22T07:11:41;99760.66;;;38.32;22.48
48964;BME280;34776;48.180;16.420;2023-07-22T07:14:07;99758.31;;;37.69;23.45
48964;BME280;34776;48.180;16.420;2023-07-22T07:16:32;99754.91;;;37.84;23.16
48964;BME280;34776;48.180;16.420;2023-07-22T07:18:59;99766.38;;;38.80;22.74
48964;BME280;34776;48.180;16.420;2023-07-22T07:21:25;99768.16;;;39.38;21.24
48964;BME280;34776;48.180;16.420;2023-07-22T07:23:52;99767.13;;;38.70;21.72
48964;BME280;34776;48.180;16.420;2023-07-22T07:26:18;99768.09;;;39.28;21.99
48964;BME280;34776;48.180;16.420;2023-07-22T07:28:44;99768.25;;;39.54;20.68
48964;BME280;34776;48.180;16.420;2023-07-22T07:31:10;99767.63;;;39.42;20.33
48964;BME280;34776;48.180;16.420;2023-07-22T07:33:35;99761.91;;;39.16;20.62
48964;BME280;34776;48.180;16.420;2023-07-22T07:36:01;99769.53;;;39.94;19.95
48964;BME280;34776;48.180;16.420;2023-07-22T07:38:28;99763.44;;;40.12;19.32
48964;BME280;34776;48.180;16.420;2023-07-22T07:40:58;99765.97;;;40.19;19.87
48964;BME280;34776;48.180;16.420;2023-07-22T07:43:24;99764.63;;;40.52;19.33
48964;BME280;34776;48.180;16.420;2023-07-22T07:45:50;99762.94;;;41.03;18.47
48964;BME280;34776;48.180;16.420;2023-07-22T07:48:16;99765.44;;;41.20;18.30
48964;BME280;34776;48.180;16.420;2023-07-22T07:50:42;99754.59;;;40.97;18.72
48964;BME280;34776;48.180;16.420;2023-07-22T07:53:07;99764.81;;;41.38;18.62
48964;BME280;34776;48.180;16.420;2023-07-22T07:55:33;99764.00;;;41.37;18.43
48964;BME280;34776;48.180;16.420;2023-07-22T07:57:58;99765.50;;;41.80;17.80
48964;BME280;34776;48.180;16.420;2023-07-22T08:00:24;99771.16;;;42.19;17.46
48964;BME280;34776;48.180;16.420;2023-07-22T08:02:49;99774.41;;;42.31;17.29
48964;BME280;34776;48.180;16.420;2023-07-22T08:05:15;99767.66;;;42.43;17.36
48964;BME280;34776;48.180;16.420;2023-07-22T08:07:41;99788.16;;;43.26;17.42
48964;BME280;34776;48.180;16.420;2023-07-22T08:10:07;99773.56;;;43.77;16.83
48964;BME280;34776;48.180;16.420;2023-07-22T08:12:33;99777.66;;;43.85;16.65
48964;BME280;34776;48.180;16.420;2023-07-22T08:14:58;99783.06;;;44.00;16.49
48964;BME280;34776;48.180;16.420;2023-07-22T08:17:24;99782.06;;;44.10;16.10
48964;BME280;34776;48.180;16.420;2023-07-22T08:19:49;99776.72;;;44.13;16.08
48964;BME280;34776;48.180;16.420;2023-07-22T08:22:14;99778.94;;;43.49;16.30
48964;BME280;34776;48.180;16.420;2023-07-22T08:24:40;99797.25;;;41.89;17.80
48964;BME280;34776;48.180;16.420;2023-07-22T08:27:05;99805.78;;;39.09;19.97
48964;BME280;34776;48.180;16.420;2023-07-22T08:29:30;99802.41;;;37.49;21.34
48964;BME280;34776;48.180;16.420;2023-07-22T08:31:56;99792.03;;;35.97;22.28
48964;BME280;34776;48.180;16.420;2023-07-22T08:34:22;99791.06;;;34.80;23.19
48964;BME280;34776;48.180;16.420;2023-07-22T09:53:17;99807.28;;;28.21;30.38
48964;BME280;34776;48.180;16.420;2023-07-22T09:55:43;99812.50;;;28.37;30.55
48964;BME280;34776;48.180;16.420;2023-07-22T09:58:09;99807.88;;;28.16;29.95
48964;BME280;34776;48.180;16.420;2023-07-22T10:00:36;99808.19;;;28.06;30.17
48964;BME280;34776;48.180;16.420;2023-07-22T10:03:03;99798.09;;;28.28;29.66
48964;BME280;34776;48.180;16.420;2023-07-22T10:05:33;99797.41;;;28.41;29.86
48964;BME280;34776;48.180;16.420;2023-07-22T10:08:00;99800.22;;;28.69;29.58
48964;BME280;34776;48.180;16.420;2023-07-22T10:10:38;99799.03;;;28.79;28.90
48964;BME280;34776;48.180;16.420;2023-07-22T10:13:04;99793.34;;;28.80;30.50
48964;BME280;34776;48.180;16.420;2023-07-22T10:15:31;99787.34;;;29.13;29.94
48964;BME280;34776;48.180;16.420;2023-07-22T10:18:00;99788.53;;;29.39;29.24
48964;BME280;34776;48.180;16.420;2023-07-22T10:20:25;99783.16;;;29.59;29.61
48964;BME280;34776;48.180;16.420;2023-07-22T10:22:51;99780.16;;;29.47;29.26
48964;BME280;34776;48.180;16.420;2023-07-22T10:25:18;99777.03;;;29.15;29.25
48964;BME280;34776;48.180;16.420;2023-07-22T10:27:45;99778.00;;;28.79;29.65
48964;BME280;34776;48.180;16.420;2023-07-22T10:30:14;99776.16;;;28.86;29.65
48964;BME280;34776;48.180;16.420;2023-07-22T10:32:45;99771.16;;;29.18;29.04
48964;BME280;34776;48.180;16.420;2023-07-22T10:37:45;99754.34;;;29.69;28.15
48964;BME280;34776;48.180;16.420;2023-07-22T10:40:17;99758.00;;;29.83;27.59
48964;BME280;34776;48.180;16.420;2023-07-22T10:53:30;99746.28;;;30.23;27.01
48964;BME280;34776;48.180;16.420;2023-07-22T10:58:35;99751.00;;;30.69;25.71
48964;BME280;34776;48.180;16.420;2023-07-22T11:06:30;99747.41;;;30.88;25.46
48964;BME280;34776;48.180;16.420;2023-07-22T11:08:56;99743.63;;;30.96;26.21
48964;BME280;34776;48.180;16.420;2023-07-22T11:11:35;99742.50;;;31.17;25.08
48964;BME280;34776;48.180;16.420;2023-07-22T11:14:14;99743.78;;;31.08;25.57
48964;BME280;34776;48.180;16.420;2023-07-22T11:24:24;99732.97;;;31.26;25.18
48964;BME280;34776;48.180;16.420;2023-07-22T11:26:50;99732.75;;;31.34;25.03
48964;BME280;34776;48.180;16.420;2023-07-22T11:47:29;99705.34;;;32.11;24.62
48964;BME280;34776;48.180;16.420;2023-07-22T11:49:55;99701.44;;;32.26;25.13
48964;BME280;34776;48.180;16.420;2023-07-22T12:17:21;99686.97;;;32.37;24.61
48964;BME280;34776;48.180;16.420;2023-07-22T12:30:08;99664.91;;;31.48;24.82
48964;BME280;34776;48.180;16.420;2023-07-22T12:37:37;99671.97;;;32.08;23.70
48964;BME280;34776;48.180;16.420;2023-07-22T12:45:13;99658.78;;;32.67;23.52
48964;BME280;34776;48.180;16.420;2023-07-22T13:04:04;99647.56;;;33.42;21.62
48964;BME280;34776;48.180;16.420;2023-07-22T13:11:39;99642.38;;;34.48;20.03
48964;BME280;34776;48.180;16.420;2023-07-22T13:19:15;99640.66;;;34.24;20.40
48964;BME280;34776;48.180;16.420;2023-07-22T13:21:40;99631.66;;;34.16;19.86
48964;BME280;34776;48.180;16.420;2023-07-22T13:24:06;99635.63;;;34.32;19.91
48964;BME280;34776;48.180;16.420;2023-07-22T13:26:31;99630.59;;;34.65;19.53
48964;BME280;34776;48.180;16.420;2023-07-22T13:28:57;99623.28;;;34.70;19.25
48964;BME280;34776;48.180;16.420;2023-07-22T13:31:23;99632.72;;;34.98;19.07
48964;BME280;34776;48.180;16.420;2023-07-22T13:51:10;99607.56;;;35.23;18.86
48964;BME280;34776;48.180;16.420;2023-07-22T13:53:36;99607.69;;;35.28;18.51
48964;BME280;34776;48.180;16.420;2023-07-22T14:21:51;99578.22;;;33.15;19.93
48964;BME280;34776;48.180;16.420;2023-07-22T14:24:16;99572.88;;;33.02;19.88
48964;BME280;34776;48.180;16.420;2023-07-22T14:26:42;99578.50;;;33.07;20.32
48964;BME280;34776;48.180;16.420;2023-07-22T14:39:28;99564.75;;;32.88;20.45
48964;BME280;34776;48.180;16.420;2023-07-22T14:46:57;99583.84;;;31.96;21.06
48964;BME280;34776;48.180;16.420;2023-07-22T14:49:23;99575.72;;;31.83;21.55
48964;BME280;34776;48.180;16.420;2023-07-22T15:14:59;99568.09;;;31.85;21.58
48964;BME280;34776;48.180;16.420;2023-07-22T15:17:26;99561.63;;;31.47;21.63
48964;BME280;34776;48.180;16.420;2023-07-22T15:22:27;99567.72;;;31.11;22.26
48964;BME280;34776;48.180;16.420;2023-07-22T15:35:07;99559.84;;;31.21;23.04
48964;BME280;34776;48.180;16.420;2023-07-22T15:42:43;99551.66;;;31.08;23.28
48964;BME280;34776;48.180;16.420;2023-07-22T15:45:09;99559.78;;;30.96;23.23
48964;BME280;34776;48.180;16.420;2023-07-22T15:47:35;99555.66;;;30.60;23.58
48964;BME280;34776;48.180;16.420;2023-07-22T15:50:01;99558.25;;;30.28;24.18
48964;BME280;34776;48.180;16.420;2023-07-22T15:52:26;99565.00;;;30.12;24.55
48964;BME280;34776;48.180;16.420;2023-07-22T15:54:51;99570.88;;;30.03;24.80
48964;BME280;34776;48.180;16.420;2023-07-22T15:57:17;99565.84;;;30.00;24.83
48964;BME280;34776;48.180;16.420;2023-07-22T15:59:43;99559.09;;;30.02;24.99
48964;BME280;34776;48.180;16.420;2023-07-22T16:02:09;99562.06;;;30.07;24.93
48964;BME280;34776;48.180;16.420;2023-07-22T16:04:34;99565.41;;;29.96;25.44
48964;BME280;34776;48.180;16.420;2023-07-22T16:06:59;99563.53;;;29.97;25.22
48964;BME280;34776;48.180;16.420;2023-07-22T16:09:25;99561.41;;;29.85;25.46
48964;BME280;34776;48.180;16.420;2023-07-22T16:11:51;99553.22;;;29.79;25.32
48964;BME280;34776;48.180;16.420;2023-07-22T16:14:17;99557.41;;;29.74;25.67
48964;BME280;34776;48.180;16.420;2023-07-22T16:16:43;99565.38;;;29.56;25.58
48964;BME280;34776;48.180;16.420;2023-07-22T16:19:08;99564.97;;;29.59;25.65
48964;BME280;34776;48.180;16.420;2023-07-22T16:21:33;99566.63;;;29.67;25.49
48964;BME280;34776;48.180;16.420;2023-07-22T16:23:59;99554.03;;;29.72;25.80
48964;BME280;34776;48.180;16.420;2023-07-22T16:26:24;99550.66;;;29.70;25.58
48964;BME280;34776;48.180;16.420;2023-07-22T16:28:49;99545.16;;;29.64;25.32
48964;BME280;34776;48.180;16.420;2023-07-22T16:31:15;99548.94;;;29.56;25.60
48964;BME280;34776;48.180;16.420;2023-07-22T16:33:40;99544.47;;;29.35;25.60
48964;BME280;34776;48.180;16.420;2023-07-22T16:36:06;99545.47;;;29.14;26.07
48964;BME280;34776;48.180;16.420;2023-07-22T16:38:31;99540.81;;;29.08;26.20
48964;BME280;34776;48.180;16.420;2023-07-22T16:40:57;99546.50;;;29.06;26.41
48964;BME280;34776;48.180;16.420;2023-07-22T16:43:22;99548.66;;;29.11;26.34
48964;BME280;34776;48.180;16.420;2023-07-22T16:45:47;99538.50;;;29.05;26.36
48964;BME280;34776;48.180;16.420;2023-07-22T16:48:12;99536.19;;;29.08;26.28
48964;BME280;34776;48.180;16.420;2023-07-22T16:50:39;99536.78;;;29.04;26.80
48964;BME280;34776;48.180;16.420;2023-07-22T16:53:05;99532.78;;;29.00;26.68
48964;BME280;34776;48.180;16.420;2023-07-22T16:55:30;99537.78;;;28.89;26.85
48964;BME280;34776;48.180;16.420;2023-07-22T16:57:56;99540.91;;;28.73;26.81
48964;BME280;34776;48.180;16.420;2023-07-22T17:00:21;99540.16;;;28.51;27.06
48964;BME280;34776;48.180;16.420;2023-07-22T17:02:47;99537.97;;;28.40;27.11
48964;BME280;34776;48.180;16.420;2023-07-22T17:05:12;99540.81;;;28.25;27.33
48964;BME280;34776;48.180;16.420;2023-07-22T17:07:39;99555.00;;;28.13;27.71
48964;BME280;34776;48.180;16.420;2023-07-22T17:10:05;99552.19;;;28.00;27.72
48964;BME280;34776;48.180;16.420;2023-07-22T17:12:31;99555.47;;;27.89;27.85
48964;BME280;34776;48.180;16.420;2023-07-22T17:14:56;99557.22;;;27.75;28.04
48964;BME280;34776;48.180;16.420;2023-07-22T17:17:22;99562.56;;;27.62;28.41
48964;BME280;34776;48.180;16.420;2023-07-22T17:19:47;99555.81;;;27.58;28.47
48964;BME280;34776;48.180;16.420;2023-07-22T17:22:13;99563.28;;;27.49;28.89
48964;BME280;34776;48.180;16.420;2023-07-22T17:24:38;99553.97;;;27.43;28.76
48964;BME280;34776;48.180;16.420;2023-07-22T17:27:04;99564.81;;;27.37;29.09
48964;BME280;34776;48.180;16.420;2023-07-22T17:29:29;99559.88;;;27.25;29.06
48964;BME280;34776;48.180;16.420;2023-07-22T17:31:54;99568.59;;;27.21;29.20
48964;BME280;34776;48.180;16.420;2023-07-22T17:34:20;99562.69;;;27.17;29.17
48964;BME280;34776;48.180;16.420;2023-07-22T17:36:45;99567.47;;;27.15;29.46
48964;BME280;34776;48.180;16.420;2023-07-22T17:39:11;99568.28;;;27.09;29.62
48964;BME280;34776;48.180;16.420;2023-07-22T17:41:36;99577.88;;;27.05;30.05